Time;durP1;ratioP1;P1;durP2;ratioP2;P2;SDS_P1;SDS_P2;PMS_P1;PMS_P2;Temp;Humidity;BMP_temperature;BMP_pressure;BME280_temperature;BME280_humidity;BME280_pressure;Samples;Min_cycle;Max_cycle;Signal;HPM_P1;HPM_P2
2022/12/04 00:01:24;;;;;;;23.60;9.38;;;9.80;57.00;;;;;;6098604;29;20039;-81
2022/12/04 00:04:25;;;;;;;27.17;10.68;;;9.80;56.90;;;;;;6078607;29;20032;-79
2022/12/04 00:07:26;;;;;;;27.85;10.27;;;9.70;57.00;;;;;;6100341;29;20047;-81
2022/12/04 00:10:27;;;;;;;19.02;9.48;;;9.70;57.10;;;;;;6091663;29;20040;-80
2022/12/04 00:13:28;;;;;;;22.80;10.68;;;9.70;57.20;;;;;;6093368;29;20486;-78
2022/12/04 00:16:29;;;;;;;25.52;10.45;;;9.60;57.20;;;;;;6086059;29;20535;-80
2022/12/04 00:19:30;;;;;;;26.88;11.05;;;9.60;57.30;;;;;;6087274;29;20111;-80
2022/12/04 00:22:32;;;;;;;24.67;10.18;;;9.60;57.40;;;;;;6072244;29;20474;-79
2022/12/04 00:25:33;;;;;;;27.45;10.73;;;9.60;57.50;;;;;;6092254;29;20425;-79
2022/12/04 00:28:34;;;;;;;25.25;10.60;;;9.60;57.50;;;;;;6096017;29;20083;-79
2022/12/04 00:31:35;;;;;;;20.55;9.30;;;9.60;57.50;;;;;;6093453;29;20099;-80
2022/12/04 00:34:36;;;;;;;24.05;10.85;;;9.60;57.50;;;;;;6096243;29;20044;-79
2022/12/04 00:37:37;;;;;;;23.00;9.05;;;9.60;57.40;;;;;;6094452;29;20037;-79
2022/12/04 00:40:38;;;;;;;22.52;9.60;;;9.60;57.40;;;;;;6091381;29;20055;-80
2022/12/04 00:43:39;;;;;;;26.38;9.80;;;9.60;57.30;;;;;;6099124;29;20060;-78
2022/12/04 00:46:40;;;;;;;20.67;8.95;;;9.60;57.40;;;;;;6084584;29;20036;-80
2022/12/04 00:49:41;;;;;;;25.35;10.25;;;9.50;57.50;;;;;;6106820;29;20029;-79
2022/12/04 00:52:42;;;;;;;19.75;8.82;;;9.50;57.50;;;;;;6098060;29;20135;-79
2022/12/04 00:55:43;;;;;;;18.80;8.52;;;9.50;57.60;;;;;;6088993;29;20216;-79
2022/12/04 00:58:45;;;;;;;24.55;10.40;;;9.50;57.60;;;;;;6092200;29;20044;-79
2022/12/04 01:01:45;;;;;;;24.00;10.25;;;9.50;57.60;;;;;;6086049;29;20419;-79
2022/12/04 01:04:47;;;;;;;23.40;9.15;;;9.50;57.60;;;;;;6095776;29;20079;-79
2022/12/04 01:07:47;;;;;;;23.80;11.10;;;9.40;57.70;;;;;;6084076;29;20047;-79
2022/12/04 01:10:48;;;;;;;23.42;9.73;;;9.40;57.70;;;;;;6076125;29;20040;-79
2022/12/04 01:13:50;;;;;;;22.77;10.13;;;9.40;57.80;;;;;;6110296;29;20060;-79
2022/12/04 01:16:51;;;;;;;20.70;8.75;;;9.40;57.90;;;;;;6101420;29;20047;-79
2022/12/04 01:19:52;;;;;;;27.05;10.15;;;9.40;57.90;;;;;;6097088;29;20032;-80
2022/12/04 01:22:52;;;;;;;20.95;8.98;;;9.40;58.00;;;;;;6087839;29;20430;-79
2022/12/04 01:25:57;;;;;;;26.05;10.30;;;9.40;58.00;;;;;;6099190;29;20055;-79
2022/12/04 01:28:58;;;;;;;23.35;9.57;;;9.30;58.00;;;;;;6085685;29;20371;-80
2022/12/04 01:31:59;;;;;;;22.85;9.30;;;9.30;58.10;;;;;;6110500;29;20116;-79
2022/12/04 01:35:00;;;;;;;27.05;9.52;;;9.30;58.20;;;;;;6096361;29;20428;-79
2022/12/04 01:38:00;;;;;;;23.77;8.18;;;9.30;58.20;;;;;;6099478;29;20114;-80
2022/12/04 01:41:03;;;;;;;26.25;10.10;;;9.30;58.20;;;;;;6101824;29;20051;-78
2022/12/04 01:44:16;;;;;;;25.23;10.55;;;9.30;58.20;;;;;;6096314;29;20094;-79
2022/12/04 01:47:17;;;;;;;29.17;9.65;;;9.30;58.30;;;;;;6105159;29;20072;-79
2022/12/04 01:50:19;;;;;;;27.75;10.57;;;9.30;58.30;;;;;;6093085;29;20044;-79
2022/12/04 01:53:20;;;;;;;26.63;9.27;;;9.30;58.30;;;;;;6081246;29;20679;-80
2022/12/04 01:56:25;;;;;;;24.52;10.30;;;9.30;58.30;;;;;;6098819;29;20040;-79
2022/12/04 01:59:31;;;;;;;21.08;8.40;;;9.30;58.30;;;;;;6086244;29;20385;-80
2022/12/04 02:02:37;;;;;;;25.35;10.00;;;9.30;58.30;;;;;;6091521;29;20045;-79
2022/12/04 02:05:39;;;;;;;17.35;9.07;;;9.30;58.40;;;;;;6083352;29;20040;-80
2022/12/04 02:08:40;;;;;;;25.70;10.32;;;9.30;58.40;;;;;;6100284;29;20461;-80
2022/12/04 02:11:54;;;;;;;26.00;10.30;;;9.20;58.40;;;;;;6092725;29;20108;-79
2022/12/04 02:15:16;;;;;;;22.65;9.68;;;9.20;58.40;;;;;;6087565;29;20048;-79
2022/12/04 02:18:46;;;;;;;22.52;9.55;;;9.20;58.40;;;;;;6079911;29;20059;-79
2022/12/04 02:21:50;;;;;;;19.90;7.93;;;9.20;58.40;;;;;;6026162;29;20282;-79
2022/12/04 02:24:58;;;;;;;25.67;11.32;;;9.30;58.40;;;;;;6042750;29;20044;-78
2022/12/04 02:28:21;;;;;;;21.85;9.27;;;9.20;58.40;;;;;;6035316;29;20045;-78
2022/12/04 02:31:30;;;;;;;29.63;9.93;;;9.20;58.40;;;;;;6047175;29;20085;-79
2022/12/04 02:34:45;;;;;;;30.85;9.35;;;9.20;58.40;;;;;;6060311;29;20045;-79
2022/12/04 02:37:55;;;;;;;25.30;10.30;;;9.20;58.40;;;;;;6061670;29;20056;-81
2022/12/04 02:41:08;;;;;;;26.38;10.52;;;9.20;58.40;;;;;;6062210;29;20037;-78
2022/12/04 02:44:28;;;;;;;23.98;9.20;;;9.20;58.40;;;;;;6040231;29;20041;-79
2022/12/04 02:47:31;;;;;;;23.63;10.05;;;9.20;58.40;;;;;;6049357;29;20041;-81
2022/12/04 02:50:36;;;;;;;23.35;10.32;;;9.20;58.40;;;;;;6062879;29;20041;-78
2022/12/04 02:53:43;;;;;;;25.38;9.40;;;9.20;58.50;;;;;;6025667;29;20045;-79
2022/12/04 02:56:49;;;;;;;22.77;10.32;;;9.20;58.50;;;;;;6040960;29;20066;-79
2022/12/04 02:59:53;;;;;;;22.88;9.15;;;9.20;58.60;;;;;;6076836;29;20490;-79
2022/12/04 03:03:29;;;;;;;24.23;10.18;;;9.30;58.50;;;;;;6096075;29;20526;-80
2022/12/04 03:06:33;;;;;;;25.42;10.05;;;9.30;58.50;;;;;;6011652;29;20049;-79
2022/12/04 03:09:50;;;;;;;20.38;9.88;;;9.30;58.50;;;;;;6013972;29;20037;-80
2022/12/04 03:13:05;;;;;;;20.60;9.88;;;9.40;58.50;;;;;;5984003;29;20045;-80
2022/12/04 03:16:26;;;;;;;28.85;9.68;;;9.40;58.50;;;;;;6010304;29;20337;-80
2022/12/04 03:19:34;;;;;;;23.13;9.65;;;9.40;58.40;;;;;;6029798;29;20045;-79
2022/12/04 03:22:39;;;;;;;19.83;9.97;;;9.40;58.30;;;;;;6004622;29;20053;-79
2022/12/04 03:25:59;;;;;;;25.60;9.98;;;9.50;58.30;;;;;;6020231;29;20657;-80
2022/12/04 03:29:17;;;;;;;24.88;9.63;;;9.40;58.30;;;;;;6026177;29;20128;-80
2022/12/04 03:32:23;;;;;;;35.58;8.55;;;9.40;58.30;;;;;;6028146;29;20838;-78
2022/12/04 03:35:48;;;;;;;22.15;10.13;;;9.40;58.30;;;;;;6029433;29;20109;-80
2022/12/04 03:39:01;;;;;;;26.27;10.02;;;9.40;58.30;;;;;;6024480;29;20045;-80
2022/12/04 03:42:21;;;;;;;25.65;10.32;;;9.40;58.40;;;;;;6062758;29;20342;-79
2022/12/04 03:45:34;;;;;;;27.23;9.50;;;9.40;58.40;;;;;;6089399;29;20047;-80
2022/12/04 03:48:44;;;;;;;21.70;9.25;;;9.40;58.40;;;;;;6095264;29;20071;-80
2022/12/04 03:51:57;;;;;;;27.60;10.05;;;9.40;58.40;;;;;;6085001;29;20103;-80
2022/12/04 03:55:06;;;;;;;18.95;9.18;;;9.40;58.40;;;;;;6087096;29;20122;-80
2022/12/04 03:58:12;;;;;;;21.20;9.85;;;9.40;58.30;;;;;;6093089;29;20103;-80
2022/12/04 04:01:16;;;;;;;21.98;9.35;;;9.40;58.30;;;;;;6090113;29;20044;-80
2022/12/04 04:04:25;;;;;;;23.40;9.52;;;9.40;58.30;;;;;;6084071;29;20447;-80
2022/12/04 04:07:35;;;;;;;;;;;9.40;58.30;;;;;;6102959;29;20048;-80
2022/12/04 04:10:35;;;;;;;27.33;10.57;;;9.40;58.30;;;;;;6104036;29;19915;-80
2022/12/04 04:24:15;;;;;;;26.13;10.65;;;9.40;58.20;;;;;;6080723;29;20055;-79
2022/12/04 04:27:16;;;;;;;24.10;9.82;;;9.50;58.20;;;;;;6093305;29;20437;-79
2022/12/04 04:30:17;;;;;;;27.88;10.70;;;9.50;58.20;;;;;;6090017;29;20041;-79
2022/12/04 04:33:18;;;;;;;20.58;9.75;;;9.50;58.10;;;;;;6087868;29;20099;-81
2022/12/04 04:36:37;;;;;;;25.23;9.85;;;9.60;58.00;;;;;;6085843;29;20056;-80
2022/12/04 04:39:53;;;;;;;22.17;10.00;;;9.60;57.90;;;;;;6086989;29;20032;-80
2022/12/04 04:43:05;;;;;;;29.35;10.23;;;9.50;57.90;;;;;;6099319;29;20155;-79
2022/12/04 04:46:27;;;;;;;20.98;9.38;;;9.60;58.10;;;;;;6081419;29;20161;-80
2022/12/04 04:49:32;;;;;;;20.02;10.07;;;9.60;57.90;;;;;;6082808;29;20470;-80
2022/12/04 04:52:36;;;;;;;21.25;9.65;;;9.50;57.80;;;;;;6090506;29;20036;-80
2022/12/04 04:55:37;;;;;;;27.75;9.55;;;9.60;57.90;;;;;;6076755;29;20060;-79
2022/12/04 04:58:38;;;;;;;19.20;9.65;;;9.60;57.90;;;;;;6092339;29;20040;-81
2022/12/04 05:01:42;;;;;;;23.63;9.55;;;9.70;57.90;;;;;;6082547;29;20183;-79
2022/12/04 05:04:42;;;;;;;27.05;9.40;;;9.70;57.80;;;;;;6082917;29;20415;-78
2022/12/04 05:07:43;;;;;;;21.63;8.65;;;9.60;57.80;;;;;;6091036;29;20040;-80
2022/12/04 05:10:44;;;;;;;23.23;8.52;;;9.60;57.90;;;;;;6080560;29;20051;-80
2022/12/04 05:13:45;;;;;;;22.58;9.32;;;9.60;58.00;;;;;;6075574;29;20036;-80
2022/12/04 05:16:46;;;;;;;24.40;9.77;;;9.60;58.00;;;;;;6069480;29;20458;-78
2022/12/04 05:19:53;;;;;;;21.75;9.73;;;9.60;58.10;;;;;;6092370;28;20051;-79
2022/12/04 05:22:54;;;;;;;26.40;9.68;;;9.60;58.10;;;;;;6091357;29;20062;-79
2022/12/04 05:26:03;;;;;;;23.52;8.77;;;9.60;58.10;;;;;;6074092;29;20040;-79
2022/12/04 05:29:04;;;;;;;22.10;9.63;;;9.50;58.20;;;;;;6092254;29;20039;-78
2022/12/04 05:32:05;;;;;;;21.98;9.32;;;9.50;58.40;;;;;;6088427;29;20411;-80
2022/12/04 05:35:06;;;;;;;20.95;8.38;;;9.40;58.50;;;;;;6087466;29;20123;-80
2022/12/04 05:38:07;;;;;;;22.20;9.98;;;9.40;58.70;;;;;;6090169;29;20410;-80
2022/12/04 05:41:08;;;;;;;22.40;9.50;;;9.40;58.90;;;;;;6079522;29;20045;-79
2022/12/04 05:44:09;;;;;;;23.58;9.65;;;9.30;58.90;;;;;;6091216;29;20613;-79
2022/12/04 05:47:10;;;;;;;24.73;10.48;;;9.30;58.90;;;;;;6079222;28;20039;-80
2022/12/04 05:50:12;;;;;;;24.98;10.55;;;9.40;59.00;;;;;;6072636;29;20424;-79
2022/12/04 05:53:13;;;;;;;23.48;10.20;;;9.40;59.00;;;;;;6095191;28;20048;-81
2022/12/04 05:56:15;;;;;;;21.92;9.45;;;9.40;59.00;;;;;;6088378;29;20549;-79
2022/12/04 05:59:16;;;;;;;21.67;10.25;;;9.40;58.90;;;;;;6084970;29;20059;-80
2022/12/04 06:02:17;;;;;;;25.80;11.10;;;9.50;59.00;;;;;;6091645;29;20044;-80
2022/12/04 06:05:18;;;;;;;28.15;10.20;;;9.40;59.00;;;;;;6084967;28;20394;-79
2022/12/04 06:08:19;;;;;;;23.48;10.07;;;9.40;58.90;;;;;;6082105;29;20055;-80
2022/12/04 06:11:22;;;;;;;23.70;9.02;;;9.50;59.00;;;;;;6088067;29;20060;-80
2022/12/04 06:14:23;;;;;;;25.83;9.95;;;9.50;59.00;;;;;;6080983;29;20126;-80
2022/12/04 06:17:24;;;;;;;27.92;10.00;;;9.50;59.00;;;;;;6104045;29;20033;-79
2022/12/04 06:20:25;;;;;;;29.85;10.98;;;9.50;59.00;;;;;;6091318;29;20112;-81
2022/12/04 06:23:26;;;;;;;27.40;10.55;;;9.50;59.00;;;;;;6090803;29;20123;-80
2022/12/04 06:26:27;;;;;;;28.48;10.90;;;9.50;59.00;;;;;;6087590;29;20048;-80
2022/12/04 06:29:28;;;;;;;29.65;9.95;;;9.40;59.00;;;;;;6090340;29;20139;-80
2022/12/04 06:32:29;;;;;;;25.42;9.95;;;9.40;59.20;;;;;;6077241;29;20036;-80
2022/12/04 06:35:29;;;;;;;20.60;9.45;;;9.40;59.30;;;;;;6091227;29;20132;-78
2022/12/04 06:38:31;;;;;;;24.30;10.20;;;9.40;59.30;;;;;;6094170;29;20478;-79
2022/12/04 06:41:32;;;;;;;26.70;11.02;;;9.40;59.40;;;;;;6091314;29;20036;-80
2022/12/04 06:44:33;;;;;;;20.83;9.73;;;9.40;59.40;;;;;;6104396;29;20044;-80
2022/12/04 06:47:35;;;;;;;21.20;10.15;;;9.40;59.40;;;;;;6107615;29;20039;-79
2022/12/04 06:50:36;;;;;;;22.80;9.93;;;9.30;59.40;;;;;;6092248;29;20032;-79
2022/12/04 06:53:37;;;;;;;29.45;10.18;;;9.30;59.50;;;;;;6095940;29;20047;-79
2022/12/04 06:56:38;;;;;;;27.33;10.98;;;9.30;59.50;;;;;;6095721;29;20083;-80
2022/12/04 06:59:39;;;;;;;29.10;10.48;;;9.30;59.40;;;;;;6084961;29;20032;-80
2022/12/04 07:02:41;;;;;;;36.10;10.23;;;9.40;59.40;;;;;;6100241;29;20051;-79
2022/12/04 07:05:42;;;;;;;25.90;10.98;;;9.40;59.30;;;;;;6088203;29;20032;-80
2022/12/04 07:08:45;;;;;;;22.98;8.77;;;9.40;59.20;;;;;;6088975;29;20051;-80
2022/12/04 07:11:46;;;;;;;26.83;11.18;;;9.50;59.20;;;;;;6086754;29;20044;-80
2022/12/04 07:14:48;;;;;;;22.02;9.38;;;9.50;59.00;;;;;;6086927;29;20058;-79
2022/12/04 07:17:49;;;;;;;26.45;10.98;;;9.50;59.00;;;;;;6091432;29;20413;-78
2022/12/04 07:20:50;;;;;;;30.05;11.85;;;9.50;59.00;;;;;;6096725;29;20044;-80
2022/12/04 07:23:57;;;;;;;25.08;10.55;;;9.60;59.10;;;;;;6097830;29;20033;-79
2022/12/04 07:26:57;;;;;;;27.60;10.27;;;9.60;59.70;;;;;;6087080;29;20059;-81
2022/12/04 07:29:58;;;;;;;25.55;10.93;;;9.60;59.00;;;;;;6086499;29;20071;-79
2022/12/04 07:32:59;;;;;;;31.88;10.43;;;9.60;59.00;;;;;;6093219;29;20681;-80
2022/12/04 07:36:03;;;;;;;24.65;10.00;;;9.60;59.00;;;;;;6088409;29;20691;-80
2022/12/04 07:39:04;;;;;;;26.92;10.15;;;9.60;59.10;;;;;;6088635;29;20039;-79
2022/12/04 07:42:04;;;;;;;23.05;11.02;;;9.60;59.00;;;;;;6098969;29;20507;-80
2022/12/04 07:45:06;;;;;;;23.00;10.60;;;9.70;59.00;;;;;;6095734;29;20037;-80
2022/12/04 07:48:07;;;;;;;26.02;10.32;;;9.70;58.90;;;;;;6098312;29;20378;-80
2022/12/04 07:51:10;;;;;;;27.48;11.07;;;9.70;58.90;;;;;;6101215;29;20536;-81
2022/12/04 07:54:11;;;;;;;26.60;10.25;;;9.70;59.00;;;;;;6086804;29;20128;-80
2022/12/04 07:57:12;;;;;;;23.13;11.13;;;9.70;59.60;;;;;;6086050;29;20382;-78
2022/12/04 08:00:13;;;;;;;23.77;11.18;;;9.60;59.10;;;;;;6098993;28;20040;-78
2022/12/04 08:03:14;;;;;;;24.60;11.00;;;9.60;59.20;;;;;;6089667;29;20037;-77
2022/12/04 08:06:20;;;;;;;28.67;11.35;;;9.60;59.30;;;;;;6108060;29;20088;-81
2022/12/04 08:09:21;;;;;;;26.98;11.95;;;9.60;59.40;;;;;;6087005;29;20044;-78
2022/12/04 08:12:22;;;;;;;28.15;12.27;;;9.70;59.50;;;;;;6086814;29;20032;-79
2022/12/04 08:15:23;;;;;;;29.58;12.20;;;9.70;59.50;;;;;;6087112;29;20044;-78
2022/12/04 08:18:24;;;;;;;27.45;10.68;;;9.70;59.60;;;;;;6090017;29;20040;-77
2022/12/04 08:21:28;;;;;;;30.52;12.75;;;9.80;59.80;;;;;;6100781;29;20040;-79
2022/12/04 08:24:29;;;;;;;29.33;11.98;;;9.80;59.80;;;;;;6096286;29;20099;-79
2022/12/04 08:27:30;;;;;;;29.23;12.52;;;9.80;59.80;;;;;;6105533;29;20551;-77
2022/12/04 08:30:32;;;;;;;26.33;11.73;;;9.90;59.80;;;;;;6093538;29;20044;-77
2022/12/04 08:33:33;;;;;;;28.17;12.48;;;10.00;59.80;;;;;;6083584;29;20399;-78
2022/12/04 08:36:34;;;;;;;28.67;11.02;;;10.10;59.80;;;;;;6084701;29;20040;-78
2022/12/04 08:39:35;;;;;;;25.58;11.00;;;10.10;59.40;;;;;;6094273;29;20036;-78
2022/12/04 08:42:36;;;;;;;34.63;12.80;;;10.10;59.40;;;;;;6081210;29;20043;-77
2022/12/04 08:45:37;;;;;;;33.60;12.77;;;10.00;59.50;;;;;;6084817;29;20218;-78
2022/12/04 08:48:39;;;;;;;24.65;11.43;;;10.00;59.70;;;;;;6099718;29;20508;-79
2022/12/04 08:51:40;;;;;;;43.13;13.30;;;10.00;59.90;;;;;;6079835;29;20111;-78
2022/12/04 08:54:41;;;;;;;27.77;12.13;;;9.90;60.00;;;;;;6094785;29;20147;-79
2022/12/04 08:57:42;;;;;;;30.55;12.77;;;9.90;60.30;;;;;;6093995;29;20037;-78
2022/12/04 09:00:44;;;;;;;36.83;11.57;;;9.90;60.40;;;;;;6098680;29;20138;-79
2022/12/04 09:03:45;;;;;;;28.17;11.45;;;9.80;60.60;;;;;;6086848;29;20047;-78
2022/12/04 09:06:46;;;;;;;33.63;13.60;;;9.80;60.80;;;;;;6086010;29;20620;-79
2022/12/04 09:09:47;;;;;;;23.85;11.15;;;9.90;61.00;;;;;;6094055;29;20686;-78
2022/12/04 09:12:49;;;;;;;27.88;11.23;;;9.90;61.00;;;;;;6086356;29;20115;-78
2022/12/04 09:15:49;;;;;;;25.83;10.98;;;9.90;60.60;;;;;;6092982;28;20202;-79
2022/12/04 09:18:51;;;;;;;50.65;13.00;;;9.90;60.50;;;;;;6092988;29;20082;-79
2022/12/04 09:21:53;;;;;;;31.15;13.38;;;9.90;60.70;;;;;;6092696;29;20179;-82
2022/12/04 09:24:55;;;;;;;29.98;13.02;;;9.80;60.90;;;;;;6092654;29;20343;-78
2022/12/04 09:27:56;;;;;;;29.33;12.75;;;9.80;61.10;;;;;;6094688;29;20048;-78
2022/12/04 09:31:03;;;;;;;29.55;11.63;;;9.70;61.30;;;;;;6101791;29;20192;-78
2022/12/04 09:34:05;;;;;;;;;;;9.80;61.50;;;;;;6092254;28;20119;-77
2022/12/04 09:37:07;;;;;;;27.52;11.80;;;9.80;61.40;;;;;;6088908;29;20371;-77
2022/12/04 09:40:29;;;;;;;27.73;12.02;;;9.90;61.30;;;;;;6093365;29;20048;-78
2022/12/04 09:44:19;;;;;;;35.92;11.43;;;9.90;61.00;;;;;;6089132;29;20426;-79
2022/12/04 09:47:26;;;;;;;24.75;12.07;;;9.90;61.10;;;;;;6086810;28;20394;-77
2022/12/04 09:50:45;;;;;;;29.75;12.18;;;9.90;61.20;;;;;;6088323;29;20155;-79
2022/12/04 09:54:06;;;;;;;27.90;11.75;;;10.00;61.20;;;;;;6094464;29;20036;-78
2022/12/04 10:00:51;;;;;;;27.08;12.90;;;10.00;61.70;;;;;;6194765;23;20048;-81
2022/12/04 10:03:53;;;;;;;26.25;11.32;;;10.00;61.80;;;;;;6136337;28;20027;-79
2022/12/04 10:07:18;;;;;;;28.45;13.20;;;10.20;61.90;;;;;;6133970;29;20106;-79
2022/12/04 10:11:11;;;;;;;27.88;12.32;;;10.20;61.80;;;;;;6145683;29;20028;-79
2022/12/04 10:15:03;;;;;;;27.63;12.55;;;10.30;61.60;;;;;;6142522;28;20039;-78
2022/12/04 10:18:48;;;;;;;29.25;11.43;;;10.40;61.30;;;;;;6133218;28;20039;-78
2022/12/04 10:21:53;;;;;;;28.77;10.75;;;10.50;61.10;;;;;;6136199;29;20039;-78
2022/12/04 10:25:13;;;;;;;29.05;11.75;;;10.60;60.90;;;;;;6133309;28;20094;-77
2022/12/04 10:28:30;;;;;;;35.40;13.60;;;10.70;60.70;;;;;;6148492;28;20443;-77
2022/12/04 10:31:34;;;;;;;30.95;12.15;;;10.80;60.60;;;;;;6146502;28;20476;-78
2022/12/04 10:35:15;;;;;;;46.10;17.58;;;10.90;59.90;;;;;;6141114;28;20040;-77
2022/12/04 10:38:55;;;;;;;31.10;13.52;;;11.00;59.80;;;;;;6139198;28;20165;-78
2022/12/04 10:42:24;;;;;;;25.58;9.20;;;11.00;59.60;;;;;;6134122;28;20411;-78
2022/12/04 10:45:25;;;;;;;39.37;15.93;;;10.90;59.60;;;;;;6141535;28;20197;-78
2022/12/04 10:48:36;;;;;;;33.25;13.85;;;10.90;59.50;;;;;;6144716;28;20069;-78
2022/12/04 10:51:42;;;;;;;33.05;11.77;;;10.90;59.60;;;;;;6140162;28;20465;-78
2022/12/04 10:54:50;;;;;;;29.75;12.55;;;10.80;59.50;;;;;;6132021;28;20496;-77
2022/12/04 10:57:51;;;;;;;26.63;11.77;;;10.70;59.60;;;;;;6133165;28;20110;-77
2022/12/04 11:01:14;;;;;;;29.90;11.93;;;10.60;59.70;;;;;;6142243;28;20055;-77
2022/12/04 11:04:28;;;;;;;29.48;12.05;;;10.60;59.90;;;;;;6130666;28;20039;-78
2022/12/04 11:07:44;;;;;;;26.42;11.88;;;10.50;60.00;;;;;;6124640;28;20476;-76
2022/12/04 11:11:00;;;;;;;31.13;12.60;;;10.40;60.30;;;;;;6126049;28;20166;-78
2022/12/04 11:14:21;;;;;;;32.08;13.75;;;10.40;60.60;;;;;;6137318;28;20034;-78
2022/12/04 11:17:23;;;;;;;36.88;14.80;;;10.50;60.80;;;;;;6130311;28;20518;-80
2022/12/04 11:20:27;;;;;;;43.38;16.20;;;10.50;60.90;;;;;;6135363;28;20075;-79
2022/12/04 11:23:35;;;;;;;29.95;13.02;;;10.50;61.00;;;;;;6135528;28;20036;-79
2022/12/04 11:26:37;;;;;;;30.88;14.07;;;10.60;61.20;;;;;;6122331;28;20097;-78
2022/12/04 11:29:43;;;;;;;29.00;13.13;;;10.60;61.30;;;;;;6139975;28;20043;-78
2022/12/04 11:32:45;;;;;;;29.38;12.18;;;10.60;61.70;;;;;;6131497;28;20085;-78
2022/12/04 11:35:55;;;;;;;32.05;11.98;;;10.70;61.70;;;;;;6148784;28;20088;-79
2022/12/04 11:39:04;;;;;;;33.53;14.32;;;10.70;61.70;;;;;;6136836;28;20127;-77
2022/12/04 11:42:16;;;;;;;29.65;13.10;;;10.80;61.80;;;;;;6126982;28;20126;-79
2022/12/04 11:45:22;;;;;;;35.60;13.23;;;10.90;61.80;;;;;;6139549;28;20066;-80
2022/12/04 11:48:24;;;;;;;36.88;13.77;;;11.00;61.50;;;;;;6143790;28;20118;-81
2022/12/04 11:51:44;;;;;;;30.30;12.43;;;11.10;61.30;;;;;;6133801;28;20511;-80
2022/12/04 11:55:05;;;;;;;30.10;12.63;;;11.10;61.30;;;;;;6120120;28;20106;-79
2022/12/04 11:58:30;;;;;;;41.58;13.73;;;11.20;60.70;;;;;;6140891;29;20372;-79
2022/12/04 12:02:03;;;;;;;33.83;13.52;;;11.20;60.30;;;;;;6125008;28;20471;-82
2022/12/04 12:05:31;;;;;;;28.95;12.68;;;11.30;60.50;;;;;;6150705;28;20348;-80
2022/12/04 12:08:36;;;;;;;32.38;12.75;;;11.40;60.20;;;;;;6135638;28;20043;-80
2022/12/04 12:11:43;;;;;;;30.02;12.50;;;11.40;60.00;;;;;;6127201;28;20184;-81
2022/12/04 12:15:08;;;;;;;30.25;11.90;;;11.40;59.80;;;;;;6136258;28;20372;-80
2022/12/04 12:18:53;;;;;;;31.48;12.55;;;11.50;59.70;;;;;;6029381;29;20052;-81
2022/12/04 12:22:25;;;;;;;28.98;11.93;;;11.60;59.60;;;;;;6019173;29;20053;-79
2022/12/04 12:25:37;;;;;;;36.22;15.70;;;11.60;59.50;;;;;;6026948;29;20128;-78
2022/12/04 12:28:54;;;;;;;29.60;12.85;;;11.80;59.40;;;;;;6040588;29;20040;-81
2022/12/04 12:32:10;;;;;;;43.10;15.55;;;12.00;59.10;;;;;;6032632;29;20391;-81
2022/12/04 12:35:26;;;;;;;37.42;15.55;;;12.00;58.70;;;;;;6046308;29;20052;-81
2022/12/04 12:38:34;;;;;;;31.02;14.48;;;12.00;58.30;;;;;;6043965;29;20041;-82
2022/12/04 12:41:39;;;;;;;39.80;15.57;;;12.00;58.50;;;;;;6026724;29;20045;-81
2022/12/04 12:45:01;;;;;;;38.85;14.60;;;11.90;58.60;;;;;;6016261;29;20381;-79
2022/12/04 12:48:28;;;;;;;32.40;15.75;;;11.90;58.70;;;;;;6042189;29;20038;-80
2022/12/04 12:51:51;;;;;;;36.83;14.55;;;11.80;58.80;;;;;;5956983;29;20492;-77
2022/12/04 12:54:59;;;;;;;39.80;15.85;;;11.80;58.80;;;;;;5986065;29;20048;-80
2022/12/04 12:58:12;;;;;;;42.42;17.75;;;11.80;58.90;;;;;;6049856;29;20137;-82
2022/12/04 13:01:22;;;;;;;35.35;15.18;;;11.80;59.00;;;;;;6044768;29;20056;-80
2022/12/04 13:04:43;;;;;;;33.22;13.90;;;11.70;59.00;;;;;;6046049;29;20489;-80
2022/12/04 13:07:51;;;;;;;28.95;11.95;;;11.70;59.10;;;;;;6045438;29;20426;-80
2022/12/04 13:11:02;;;;;;;37.67;14.13;;;11.70;58.90;;;;;;6065672;29;20032;-79
2022/12/04 13:14:04;;;;;;;35.33;13.10;;;11.70;58.80;;;;;;6048789;29;20471;-81
2022/12/04 13:17:10;;;;;;;30.52;12.52;;;11.70;58.80;;;;;;6064432;29;20044;-80
2022/12/04 13:20:21;;;;;;;28.27;12.25;;;11.70;58.80;;;;;;6049783;29;20048;-80
2022/12/04 13:23:56;;;;;;;35.22;14.10;;;11.70;58.90;;;;;;6071339;29;20056;-80
2022/12/04 13:27:43;;;;;;;30.75;13.13;;;11.70;59.00;;;;;;6050852;28;20120;-81
2022/12/04 13:30:56;;;;;;;31.33;12.60;;;11.60;59.00;;;;;;6034355;29;21043;-79
2022/12/04 13:34:24;;;;;;;32.22;14.02;;;11.50;59.20;;;;;;6034932;29;20064;-80
2022/12/04 13:37:31;;;;;;;33.42;13.50;;;11.40;59.40;;;;;;6035022;29;20041;-79
2022/12/04 13:40:42;;;;;;;31.63;12.77;;;11.40;59.60;;;;;;6022118;29;20077;-80
2022/12/04 13:43:49;;;;;;;34.78;14.80;;;11.40;59.90;;;;;;6023261;29;20029;-80
2022/12/04 13:47:00;;;;;;;41.95;14.35;;;11.30;60.10;;;;;;6050284;29;20040;-80
2022/12/04 13:50:18;;;;;;;32.78;14.02;;;11.30;60.40;;;;;;6045956;29;20049;-80
2022/12/04 13:53:36;;;;;;;31.38;12.82;;;11.40;60.50;;;;;;6009487;29;20057;-81
2022/12/04 13:56:39;;;;;;;40.28;15.05;;;11.50;60.40;;;;;;6026500;29;20063;-78
2022/12/04 13:59:41;;;;;;;29.90;11.75;;;11.60;60.00;;;;;;6031750;29;20045;-79
2022/12/04 14:02:50;;;;;;;31.48;13.75;;;11.60;59.90;;;;;;6012427;29;20125;-82
2022/12/04 14:05:54;;;;;;;30.30;13.50;;;11.50;60.00;;;;;;6092201;28;20040;-80
2022/12/04 14:09:01;;;;;;;28.42;12.38;;;11.40;60.10;;;;;;6140470;28;20055;-82
2022/12/04 14:12:15;;;;;;;36.75;14.90;;;11.40;60.40;;;;;;6136154;28;20431;-85
2022/12/04 14:15:30;;;;;;;35.20;14.15;;;11.40;60.60;;;;;;6141250;28;20039;-79
2022/12/04 14:18:48;;;;;;;35.42;15.18;;;11.40;60.60;;;;;;6143758;28;20106;-88
2022/12/04 14:22:02;;;;;;;32.47;13.80;;;11.40;60.70;;;;;;6136753;28;20039;-79
2022/12/04 14:25:13;;;;;;;33.42;15.20;;;11.50;60.70;;;;;;6136446;28;20377;-78
2022/12/04 14:28:30;;;;;;;35.85;13.52;;;11.40;61.40;;;;;;6132085;28;20040;-78
2022/12/04 14:31:38;;;;;;;34.45;14.20;;;11.40;60.90;;;;;;6136534;28;20807;-80
2022/12/04 14:34:40;;;;;;;31.00;13.43;;;11.40;61.00;;;;;;6137519;28;20039;-79
2022/12/04 14:37:56;;;;;;;32.78;14.43;;;11.50;61.20;;;;;;6124456;28;20417;-79
2022/12/04 14:40:57;;;;;;;33.70;14.02;;;11.50;61.20;;;;;;6130033;28;20080;-78
2022/12/04 14:43:59;;;;;;;36.10;13.98;;;11.50;61.10;;;;;;6133315;28;20039;-79
2022/12/04 14:47:18;;;;;;;33.38;14.75;;;11.50;61.10;;;;;;6141315;28;20067;-80
2022/12/04 14:50:45;;;;;;;32.42;13.82;;;11.50;61.10;;;;;;6119060;28;20233;-78
2022/12/04 14:54:19;;;;;;;37.53;15.77;;;11.40;61.20;;;;;;6131231;28;20036;-82
2022/12/04 14:57:47;;;;;;;35.78;14.30;;;11.30;61.50;;;;;;6130810;28;20464;-80
2022/12/04 15:00:56;;;;;;;38.28;14.50;;;11.30;61.70;;;;;;6134050;28;20508;-79
2022/12/04 15:04:04;;;;;;;31.70;13.75;;;11.30;61.90;;;;;;6123180;28;20031;-81
2022/12/04 15:07:05;;;;;;;35.28;14.15;;;11.30;61.90;;;;;;6137861;28;20162;-81
2022/12/04 15:13:39;;;;;;;35.08;14.38;;;11.30;62.00;;;;;;6136261;28;20027;-80
2022/12/04 15:16:42;;;;;;;32.65;13.60;;;11.30;62.00;;;;;;6129641;28;20046;-81
2022/12/04 15:19:45;;;;;;;33.42;13.52;;;11.30;62.10;;;;;;6137389;28;20130;-79
2022/12/04 15:22:47;;;;;;;28.65;13.18;;;11.30;62.30;;;;;;6135016;28;20357;-79
2022/12/04 15:25:55;;;;;;;23.23;10.80;;;11.20;62.50;;;;;;6116106;28;20074;-79
2022/12/04 15:29:00;;;;;;;25.23;11.27;;;11.10;62.80;;;;;;6134571;28;20500;-80
2022/12/04 15:32:09;;;;;;;31.90;12.48;;;11.10;63.00;;;;;;6136624;28;20279;-80
2022/12/04 15:35:19;;;;;;;27.75;13.00;;;11.10;63.40;;;;;;6137779;28;20646;-79
2022/12/04 15:38:21;;;;;;;34.05;12.70;;;11.00;63.50;;;;;;6132708;28;20043;-79
2022/12/04 15:41:33;;;;;;;40.40;12.05;;;10.90;63.60;;;;;;6135562;28;20095;-78
2022/12/04 15:44:34;;;;;;;33.50;12.38;;;10.90;64.00;;;;;;6125199;28;20118;-81
2022/12/04 15:47:42;;;;;;;25.60;10.65;;;10.80;64.20;;;;;;6137513;28;20042;-81
2022/12/04 15:50:53;;;;;;;28.73;11.60;;;10.70;65.30;;;;;;6153291;28;20050;-81
2022/12/04 15:53:56;;;;;;;29.35;11.57;;;10.70;64.90;;;;;;6144262;28;20071;-84
2022/12/04 15:57:12;;;;;;;28.63;13.88;;;10.70;65.40;;;;;;6126884;28;20027;-82
2022/12/04 16:00:32;;;;;;;33.92;12.68;;;10.70;65.70;;;;;;6133788;28;20186;-81
2022/12/04 16:03:49;;;;;;;24.80;10.35;;;10.70;66.10;;;;;;6132429;28;20057;-84
2022/12/04 16:06:52;;;;;;;23.45;11.25;;;10.70;66.40;;;;;;6114015;28;20051;-82
2022/12/04 16:10:00;;;;;;;28.60;12.00;;;10.70;66.60;;;;;;6112226;28;20090;-87
2022/12/04 16:13:03;;;;;;;24.63;11.30;;;10.70;66.80;;;;;;6139548;28;20039;-80
2022/12/04 16:16:09;;;;;;;24.05;10.60;;;10.80;66.70;;;;;;6134814;28;20349;-79
2022/12/04 16:19:26;;;;;;;23.25;9.95;;;10.80;66.70;;;;;;6127740;28;20428;-80
2022/12/04 16:22:28;;;;;;;28.00;9.43;;;10.90;66.60;;;;;;6143664;28;20032;-80